Stations météo

Publicité
Puerto Plata, République Dominicaine (78457): Température de l'air & dewpoint: 17.11.2017 07:00:00 - 23.11.2017 07:00:00 (AST)Puerto Plata, République Dominicaine (78457): Vitesse du vent: 17.11.2017 07:00:00 - 23.11.2017 07:00:00 (AST)Puerto Plata, République Dominicaine (78457): Direction du vent: 17.11.2017 07:00:00 - 23.11.2017 07:00:00 (AST)Puerto Plata, République Dominicaine (78457): visibility: 17.11.2017 07:00:00 - 23.11.2017 07:00:00 (AST)
Date & Time tt [°C] td [°C] ff [km/h] ff [knt] dd vv [km]
23.11.2017 07:00:00 23,0 23,0 0 0 N 10
23.11.2017 06:00:00 - - - - - -
23.11.2017 05:00:00 23,0 23,0 0 0 N 10
23.11.2017 04:00:00 - - - - - -
23.11.2017 03:00:00 - - - - - -
23.11.2017 02:00:00 24,0 23,0 0 0 N 10
23.11.2017 01:00:00 - - - - - -
23.11.2017 00:00:00 - - - - - -
22.11.2017 23:00:00 25,0 24,0 0 0 N 10
22.11.2017 22:00:00 - - - - - -
22.11.2017 21:00:00 - - - - - -
22.11.2017 20:00:00 24,0 24,0 0 0 N 10
22.11.2017 19:00:00 25,0 25,0 0 0 N 10
22.11.2017 18:00:00 29,0 25,0 0 0 N 10
22.11.2017 17:00:00 31,0 26,0 0 0 N 10
22.11.2017 16:00:00 30,0 24,0 13 7 NE 10
22.11.2017 15:00:00 31,0 24,0 18 10 NE 10
22.11.2017 14:00:00 31,0 23,0 15 8 NE 10
22.11.2017 13:00:00 31,0 23,0 15 8 N 10
22.11.2017 12:00:00 30,0 23,0 0 0 N 10
22.11.2017 11:00:00 29,0 23,0 9 5 ESE 10
22.11.2017 10:00:00 26,0 23,0 0 0 N 10
22.11.2017 09:00:00 22,0 21,0 0 0 N 10
22.11.2017 08:00:00 21,0 21,0 0 0 N 10
22.11.2017 07:00:00 21,0 21,0 9 5 E 10
22.11.2017 06:00:00 - - - - - -
22.11.2017 05:00:00 23,0 22,0 0 0 N 10
22.11.2017 04:00:00 - - - - - -
22.11.2017 03:00:00 - - - - - -
22.11.2017 02:00:00 - - - - - -
22.11.2017 01:00:00 - - - - - -
22.11.2017 00:00:00 - - - - - -
21.11.2017 23:00:00 24,0 23,0 0 0 N 10
21.11.2017 22:00:00 - - - - - -
21.11.2017 21:00:00 - - - - - -
21.11.2017 20:00:00 25,0 24,0 0 0 N 10
21.11.2017 19:00:00 25,0 24,0 0 0 N 10
21.11.2017 18:00:00 27,0 25,0 0 0 N 8
21.11.2017 17:00:00 28,0 24,0 9 5 ESE 10
21.11.2017 16:00:00 28,0 24,0 15 8 E 10
21.11.2017 15:00:00 31,0 25,0 18 10 E 10
21.11.2017 14:00:00 31,0 25,0 18 10 ENE 10
21.11.2017 13:00:00 31,0 25,0 18 10 E 10
21.11.2017 12:00:00 30,0 25,0 15 8 E 10
21.11.2017 11:00:00 30,0 25,0 11 6 E 10
21.11.2017 10:00:00 28,0 25,0 18 10 E 10
21.11.2017 09:00:00 25,0 24,0 15 8 E 10
21.11.2017 08:00:00 23,0 22,0 0 0 N 10
21.11.2017 07:00:00 23,0 22,0 0 0 N 10
21.11.2017 06:00:00 - - - - - -
21.11.2017 05:00:00 23,0 22,0 0 0 N 10
21.11.2017 04:00:00 - - - - - -
21.11.2017 03:00:00 - - - - - -
21.11.2017 02:00:00 23,0 23,0 0 0 N 10
21.11.2017 01:00:00 - - - - - -
21.11.2017 00:00:00 - - - - - -
20.11.2017 23:00:00 24,0 23,0 0 0 N 10
20.11.2017 22:00:00 - - - - - -
20.11.2017 21:00:00 - - - - - -
20.11.2017 20:00:00 23,0 23,0 0 0 N 10
20.11.2017 19:00:00 23,0 23,0 0 0 N 10
20.11.2017 18:00:00 24,0 23,0 0 0 N 10
20.11.2017 17:00:00 23,0 23,0 0 0 N 7
20.11.2017 16:00:00 25,0 25,0 0 0 N 8
20.11.2017 15:00:00 26,0 25,0 0 0 N 10
20.11.2017 14:00:00 26,0 25,0 0 0 N 8
20.11.2017 13:00:00 27,0 24,0 0 0 N 8
20.11.2017 12:00:00 27,0 24,0 9 5 E 10
20.11.2017 11:00:00 27,0 25,0 0 0 N 10
20.11.2017 10:00:00 26,0 25,0 0 0 N 8
20.11.2017 09:00:00 25,0 24,0 0 0 N 8
20.11.2017 08:00:00 24,0 24,0 0 0 N 10
20.11.2017 07:00:00 23,0 23,0 0 0 N 10
20.11.2017 06:00:00 - - - - - -
20.11.2017 05:00:00 23,0 22,0 0 0 N 10
20.11.2017 04:00:00 - - - - - -
20.11.2017 03:00:00 - - - - - -
20.11.2017 02:00:00 23,0 23,0 0 0 N 10
20.11.2017 01:00:00 - - - - - -
20.11.2017 00:00:00 - - - - - -
19.11.2017 23:00:00 24,0 23,0 0 0 N 10
19.11.2017 22:00:00 - - - - - -
19.11.2017 21:00:00 - - - - - -
19.11.2017 20:00:00 25,0 24,0 0 0 N 10
19.11.2017 19:00:00 26,0 25,0 0 0 N 10
19.11.2017 18:00:00 27,0 24,0 0 0 N 8
19.11.2017 17:00:00 27,0 24,0 11 6 E 8
19.11.2017 16:00:00 28,0 24,0 9 5 E 8
19.11.2017 15:00:00 28,0 24,0 18 10 ENE 10
19.11.2017 14:00:00 28,0 24,0 15 8 ENE 10
19.11.2017 13:00:00 28,0 24,0 11 6 E 10
19.11.2017 12:00:00 28,0 24,0 15 8 E 10
19.11.2017 11:00:00 28,0 24,0 13 7 E 10
19.11.2017 10:00:00 28,0 25,0 15 8 E 10
19.11.2017 09:00:00 25,0 25,0 0 0 N 10
19.11.2017 08:00:00 22,0 22,0 0 0 N 10
19.11.2017 07:00:00 23,0 22,0 0 0 N 10
19.11.2017 06:00:00 - - - - - -
19.11.2017 05:00:00 22,0 22,0 0 0 N 10
19.11.2017 04:00:00 - - - - - -
19.11.2017 03:00:00 - - - - - -
19.11.2017 02:00:00 22,0 22,0 0 0 N 10
19.11.2017 01:00:00 - - - - - -
19.11.2017 00:00:00 - - - - - -
18.11.2017 23:00:00 22,0 22,0 0 0 N 8
18.11.2017 22:00:00 - - - - - -
18.11.2017 21:00:00 - - - - - -
18.11.2017 20:00:00 23,0 23,0 0 0 N 10
18.11.2017 19:00:00 24,0 23,0 0 0 N 8
18.11.2017 18:00:00 25,0 24,0 0 0 N 10
18.11.2017 17:00:00 25,0 24,0 0 0 N 10
18.11.2017 16:00:00 24,0 24,0 0 0 N 10
18.11.2017 15:00:00 24,0 24,0 0 0 N 7
18.11.2017 14:00:00 30,0 24,0 11 6 NNE 10
18.11.2017 13:00:00 29,0 24,0 0 0 N 10
18.11.2017 12:00:00 25,0 23,0 0 0 N 10
18.11.2017 11:00:00 24,0 24,0 11 6 S 10
18.11.2017 10:00:00 23,0 23,0 0 0 N 7
18.11.2017 09:00:00 23,0 23,0 0 0 N 10
18.11.2017 08:00:00 22,0 22,0 0 0 N 10
18.11.2017 07:00:00 22,0 22,0 0 0 N 10
18.11.2017 06:00:00 - - - - - -
18.11.2017 05:00:00 22,0 22,0 0 0 N 10
18.11.2017 04:00:00 - - - - - -
18.11.2017 03:00:00 - - - - - -
18.11.2017 02:00:00 22,0 22,0 0 0 N 8
18.11.2017 01:00:00 - - - - - -
18.11.2017 00:00:00 - - - - - -
17.11.2017 23:00:00 23,0 23,0 0 0 N 8
17.11.2017 22:00:00 - - - - - -
17.11.2017 21:00:00 - - - - - -
17.11.2017 20:00:00 24,0 24,0 26 14 NE 6
17.11.2017 19:00:00 24,0 24,0 11 6 NNE 7
17.11.2017 18:00:00 24,0 24,0 0 0 N 8
17.11.2017 17:00:00 25,0 25,0 11 6 E 5
17.11.2017 16:00:00 27,0 25,0 18 10 N 8
17.11.2017 15:00:00 30,0 25,0 11 6 N 10
17.11.2017 14:00:00 30,0 25,0 9 5 N 10
17.11.2017 13:00:00 29,0 25,0 9 5 N 10
17.11.2017 12:00:00 29,0 25,0 9 5 NNW 10
17.11.2017 11:00:00 29,0 25,0 9 5 N 10
17.11.2017 10:00:00 29,0 25,0 9 5 NNW 10
17.11.2017 09:00:00 27,0 24,0 0 0 N 10
17.11.2017 08:00:00 25,0 23,0 0 0 N 10
17.11.2017 07:00:00 24,0 23,0 0 0 N 10

tt = Température de l'air
td = dewpoint
ff = Vitesse du vent
dd = Direction du vent
vv = visibility

stations d'obs. à proximité